NCAR-RAP Real-Time Weather Data

Output produced by METARs form (16 August 2018  19:23 UTC)
found at http://weather.rap.ucar.edu/surface/
 
RJOO 161100Z 31003KT 260V340 9999 VCSH FEW015 BKN050 BKN070 26/23 Q1009 RMK 1CU015 5SC050 6AC070 A2980
RJOO 161047Z 31004KT 9999 -SHRA FEW015 BKN050 BKN070 25/23 Q1009 RMK 1CU015 5SC050 6AC070 A2980
RJOO 161006Z 31014KT 270V330 9999 -SHRA FEW025 BKN050 BKN/// 28/21 Q1008 RMK 1CU025 5SC050 A2979
RJOO 161000Z 25005KT 210V290 9999 VCSH FEW025 BKN050 BKN/// 28/23 Q1008 RMK 1CU025 5SC050 A2978
RJOO 160900Z 24009KT 200V260 9999 FEW030 BKN070 BKN/// 28/22 Q1007 RMK 1CU030 5AC070 A2976
RJOO 160800Z 23011KT 9999 FEW025 SCT050 BKN/// 29/22 Q1007 RMK 1CU025 3SC050 A2974
RJOO 160700Z 21007KT 170V250 9999 VCSH FEW008 SCT015 BKN050 29/23 Q1006 RMK 1ST008 3CU015 5SC050 A2973
RJOO 160600Z 24011KT 9999 -SHRA FEW008 SCT015 BKN/// 29/23 Q1007 RMK 1ST008 4CU015 A2975
RJOO 160500Z 24010KT 210V270 9999 FEW008 BKN015 BKN/// 29/22 Q1008 RMK 1ST008 5CU015 A2977
RJOO 160400Z 22012KT 190V250 9999 VCSH FEW008 BKN015 BKN/// 29/23 Q1008 RMK 1ST008 5CU015 A2978
RJOO 160300Z 24010KT 210V270 9999 -SHRA FEW008 BKN015 FEW025CB BKN/// 28/24 Q1009
RJOO 160243Z 24010KT 220V280 9999 -SHRA FEW008 BKN015 FEW025CB BKN/// 28/24 Q1009 RMK 1ST008 5CU015 1CB025 A2981 CB 10KM N AND 25KM SE MOV NE
RJOO 160220Z 24012G22KT 200V280 9999 -TSRA FEW008 BKN015 FEW025CB BKN/// 29/23 Q1009 RMK 1ST008 5CU015 1CB025 A2981 FBL TS 15KM W MOV NE
RJOO 160200Z 23011KT 160V270 9999 -SHRA FEW008 BKN015 BKN/// 29/23 Q1009 RMK 1ST008 5CU015 A2981
RJOO 160100Z 23010KT 190V270 9999 VCSH FEW008 BKN015 BKN/// 30/23 Q1009 WS R32L RMK 1ST008 5CU015 A2981
RJOO 160000Z 23010KT 9999 FEW008 BKN015 BKN/// 30/23 Q1009
RJOO 152300Z 22006KT 160V260 9999 FEW008 SCT015 BKN/// 29/23 Q1009 RMK 1ST008 4CU015 A2981
RJOO 152200Z 17004KT 120V240 9999 FEW010 SCT020 BKN/// 28/23 Q1008
RJOO 152100Z 23006KT 170V280 9999 VCSH FEW010 BKN020 BKN/// 28/23 Q1009 RMK 1CU010 5CU020 A2979
RJOO 152000Z 23003KT 190V280 9999 FEW015 BKN025 28/22 Q1009 RMK 1CU015 6CU025 A2979
RJOO 151100Z 23004KT 170V270 9999 -SHRA FEW025 SCT120 BKN150 29/22 Q1012 RMK 1CU025 3AC120 5AC150 A2989
RJOO 151000Z VRB02KT 9999 -SHRA FEW025 SCT040 BKN140 29/22 Q1011 RMK 1CU025 3CU040 6AC140 A2988
RJOO 150900Z 27003KT 220V360 9999 -SHRA FEW020 FEW025CB SCT030 BKN160 29/22 Q1011 RMK 1CU020 1CB025 3CU030 6AC160 A2987 CB NE
RJOO 150800Z 24007KT 210V270 9999 VCSH FEW020 FEW025CB SCT030 BKN/// 30/20 Q1011 RMK 1CU020 1CB025 3CU030 A2987 CB 30KM SE MOV NE AND CB NE
RJOO 150700Z 24008KT 190V280 9999 VCSH FEW020 FEW025CB SCT060 BKN/// 31/22 Q1011 RMK 1CU020 1CB025 3SC060 A2987 CB SE
RJOO 150600Z 25007KT 9999 FEW025 SCT120 BKN/// 32/21 Q1011 RMK 1CU025 3AC120 A2988
RJOO 150500Z 21007KT 150V280 9999 FEW020 SCT040 BKN/// 33/20 Q1011 RMK 1CU020 3CU040 A2988
RJOO 150429Z VRB03KT 9999 FEW020 SCT120 BKN/// 33/21 Q1012 RMK 1CU020 4AC120 A2989
RJOO 150400Z 23005KT 200V280 9999 FEW015 BKN080 BKN/// 31/21 Q1012 RMK 1CU015 5AC080 A2990
RJOO 150300Z 19006KT 130V250 9999 -SHRA FEW015 SCT025 BKN100 29/22 Q1013 RMK 1CU015 4CU025 5AC100 A2992
RJOO 150200Z VRB01KT 9999 -SHRA FEW020 SCT035 BKN100 29/22 Q1013 RMK 1CU020 3CU035 5AC100 A2992
RJOO 150100Z VRB01KT 9999 -SHRA FEW020 SCT040 BKN080 29/22 Q1013 RMK 1CU020 3CU040 5AC080 A2992
RJOO 150000Z VRB02KT 9999 -SHRA FEW020 BKN040 BKN110 30/21 Q1013 RMK 1CU020 5CU040 6AC110 A2993
RJOO 142300Z VRB04KT 9999 FEW020 BKN040 BKN160 29/21 Q1013 RMK 1CU020 5CU040 6AC160 A2992
RJOO 142200Z VRB01KT 9999 FEW020 BKN030 BKN160 29/21 Q1012 RMK 1CU020 5CU030 6AC160 A2991
RJOO 142100Z 07003KT 030V110 9999 VCSH FEW020 BKN040 28/21 Q1012 RMK 1CU020 5CU040 A2991
RJOO 142000Z 10004KT 9999 FEW025 BKN045 28/22 Q1012 RMK 1CU025 5CU045 A2990
RJOO 141100Z 17003KT 130V210 9999 FEW030 31/21 Q1012 RMK 1CU030 A2989
RJOO 141000Z 20003KT 140V260 9999 FEW030 SCT060 31/21 Q1011 RMK 1CU030 3SC060 A2988
RJOO 140900Z 21006KT 140V290 9999 FEW025 BKN/// 31/21 Q1011 RMK 1CU025 A2987
RJOO 140800Z 21007KT 150V260 9999 FEW025 BKN/// 32/21 Q1011 RMK 1CU025 A2987